N711VJ KPHL-KISP
Flight info
| Callsign | N711VJ |
|---|---|
| Flight time | 0h 25m |
| Altitude | 17000 |
| Route | DITCH T416 JIMEE WAVEY SHIPP CCC |
| Aircraft | C750/M-SBDE3FGHRWXY/S |
Departure
| Time | 2026-05-09 04:20 |
|---|---|
| Airport | Philadelphia International Airport (KPHL) |
Arrival
| Time | 2026-05-09 04:46 |
|---|---|
| Airport | Long Island MacArthur Airport (KISP) |
| Time | Latitude | Longitude | Altitude | Speed | Heading |
|---|---|---|---|---|---|
| 2026-05-09 04:14 | 39.88032 | -75.22972 | 19 ft | 0 kts | 267° |
| 2026-05-09 04:18 | 39.88031 | -75.22977 | 19 ft | 2 kts | 262° |
| 2026-05-09 04:18 | 39.87998 | -75.23062 | 19 ft | 9 kts | 183° |
| 2026-05-09 04:18 | 39.87930 | -75.23035 | 19 ft | 11 kts | 159° |
| 2026-05-09 04:19 | 39.87826 | -75.22982 | 20 ft | 16 kts | 159° |
| 2026-05-09 04:19 | 39.87702 | -75.22921 | 19 ft | 21 kts | 159° |
| 2026-05-09 04:19 | 39.87561 | -75.22850 | 22 ft | 22 kts | 159° |
| 2026-05-09 04:19 | 39.87459 | -75.22801 | 19 ft | 5 kts | 160° |
| 2026-05-09 04:20 | 39.87425 | -75.22804 | 19 ft | 5 kts | 219° |
| 2026-05-09 04:20 | 39.87389 | -75.22947 | 19 ft | 52 kts | 255° |
| 2026-05-09 04:20 | 39.87199 | -75.23900 | 63 ft | 143 kts | 255° |
| 2026-05-09 04:20 | 39.86961 | -75.25097 | 903 ft | 136 kts | 246° |
| 2026-05-09 04:21 | 39.86407 | -75.26163 | 1531 ft | 144 kts | 231° |
| 2026-05-09 04:21 | 39.85815 | -75.27227 | 2323 ft | 151 kts | 234° |
| 2026-05-09 04:21 | 39.84012 | -75.29316 | 3241 ft | 213 kts | 192° |
| 2026-05-09 04:22 | 39.82461 | -75.28905 | 3672 ft | 250 kts | 152° |
| 2026-05-09 04:22 | 39.81278 | -75.27149 | 4398 ft | 270 kts | 117° |
| 2026-05-09 04:22 | 39.80941 | -75.24736 | 5459 ft | 275 kts | 91° |
| 2026-05-09 04:22 | 39.81063 | -75.22227 | 6369 ft | 283 kts | 87° |
| 2026-05-09 04:23 | 39.81108 | -75.19631 | 7329 ft | 290 kts | 92° |
| 2026-05-09 04:23 | 39.80982 | -75.16984 | 8396 ft | 297 kts | 96° |
| 2026-05-09 04:23 | 39.80842 | -75.14278 | 9414 ft | 303 kts | 94° |
| 2026-05-09 04:23 | 39.80763 | -75.11494 | 10237 ft | 313 kts | 92° |
| 2026-05-09 04:24 | 39.80687 | -75.08554 | 10602 ft | 338 kts | 92° |
| 2026-05-09 04:24 | 39.80577 | -75.05425 | 10784 ft | 366 kts | 92° |
| 2026-05-09 04:24 | 39.80452 | -75.02013 | 11139 ft | 383 kts | 92° |
| 2026-05-09 04:24 | 39.80337 | -74.98553 | 11983 ft | 384 kts | 91° |
| 2026-05-09 04:25 | 39.80222 | -74.95039 | 12608 ft | 393 kts | 91° |
| 2026-05-09 04:25 | 39.80096 | -74.91469 | 13296 ft | 398 kts | 92° |
| 2026-05-09 04:25 | 39.79966 | -74.87850 | 13879 ft | 404 kts | 91° |
| 2026-05-09 04:25 | 39.79836 | -74.84178 | 14338 ft | 409 kts | 91° |
| 2026-05-09 04:26 | 39.79703 | -74.80470 | 14818 ft | 412 kts | 91° |
| 2026-05-09 04:26 | 39.79569 | -74.76723 | 15287 ft | 416 kts | 92° |
| 2026-05-09 04:26 | 39.79433 | -74.72951 | 15738 ft | 420 kts | 92° |
| 2026-05-09 04:26 | 39.79568 | -74.69142 | 16087 ft | 424 kts | 82° |
| 2026-05-09 04:27 | 39.79925 | -74.65337 | 16667 ft | 422 kts | 81° |
| 2026-05-09 04:27 | 39.80253 | -74.61521 | 17004 ft | 430 kts | 82° |
| 2026-05-09 04:27 | 39.80543 | -74.57736 | 16600 ft | 422 kts | 82° |
| 2026-05-09 04:27 | 39.80862 | -74.53907 | 16954 ft | 428 kts | 81° |
| 2026-05-09 04:28 | 39.81211 | -74.49977 | 16980 ft | 446 kts | 82° |
| 2026-05-09 04:28 | 39.81528 | -74.45946 | 17001 ft | 451 kts | 83° |
| 2026-05-09 04:28 | 39.81898 | -74.42107 | 17163 ft | 406 kts | 81° |
| 2026-05-09 04:28 | 39.81837 | -74.38514 | 17022 ft | 392 kts | 92° |
| 2026-05-09 04:29 | 39.82302 | -74.35269 | 18076 ft | 355 kts | 90° |
| 2026-05-09 04:29 | 39.81887 | -74.32034 | 17034 ft | 381 kts | 96° |
| 2026-05-09 04:29 | 39.81800 | -74.28465 | 17001 ft | 407 kts | 91° |
| 2026-05-09 04:29 | 39.81782 | -74.24678 | 16981 ft | 430 kts | 89° |
| 2026-05-09 04:30 | 39.81769 | -74.20706 | 17047 ft | 448 kts | 90° |
| 2026-05-09 04:30 | 39.82010 | -74.16609 | 16990 ft | 460 kts | 75° |
| 2026-05-09 04:30 | 39.83174 | -74.12720 | 17040 ft | 462 kts | 56° |
| 2026-05-09 04:30 | 39.85038 | -74.09292 | 16992 ft | 471 kts | 50° |
| 2026-05-09 04:31 | 39.86973 | -74.05830 | 17000 ft | 466 kts | 49° |
| 2026-05-09 04:31 | 39.88846 | -74.02437 | 17040 ft | 450 kts | 50° |
| 2026-05-09 04:31 | 39.90666 | -73.99091 | 17058 ft | 455 kts | 50° |
| 2026-05-09 04:31 | 39.92534 | -73.95787 | 16961 ft | 466 kts | 50° |
| 2026-05-09 04:32 | 39.94153 | -73.92217 | 17027 ft | 454 kts | 61° |
| 2026-05-09 04:32 | 39.95774 | -73.89217 | 17560 ft | 377 kts | 2° |
| 2026-05-09 04:32 | 39.98370 | -73.88269 | 15972 ft | 430 kts | 34° |
| 2026-05-09 04:32 | 39.99488 | -73.84780 | 16943 ft | 424 kts | 69° |
| 2026-05-09 04:33 | 40.00789 | -73.81263 | 17001 ft | 435 kts | 55° |
| 2026-05-09 04:33 | 40.02374 | -73.77849 | 17118 ft | 447 kts | 52° |
| 2026-05-09 04:33 | 40.04192 | -73.74490 | 17069 ft | 459 kts | 48° |
| 2026-05-09 04:33 | 40.06180 | -73.71164 | 17008 ft | 470 kts | 47° |
| 2026-05-09 04:34 | 40.08133 | -73.67704 | 16917 ft | 476 kts | 50° |
| 2026-05-09 04:34 | 40.09997 | -73.64122 | 16809 ft | 478 kts | 51° |
| 2026-05-09 04:34 | 40.11882 | -73.60600 | 16641 ft | 465 kts | 49° |
| 2026-05-09 04:34 | 40.13722 | -73.57338 | 16511 ft | 426 kts | 49° |
| 2026-05-09 04:35 | 40.15650 | -73.54563 | 16194 ft | 401 kts | 36° |
| 2026-05-09 04:35 | 40.17832 | -73.52402 | 14494 ft | 394 kts | 25° |
| 2026-05-09 04:35 | 40.20322 | -73.51001 | 13228 ft | 381 kts | 12° |
| 2026-05-09 04:35 | 40.22769 | -73.50049 | 12738 ft | 352 kts | 8° |
| 2026-05-09 04:36 | 40.25042 | -73.49242 | 12485 ft | 324 kts | 8° |
| 2026-05-09 04:36 | 40.27130 | -73.48496 | 12365 ft | 298 kts | 7° |
| 2026-05-09 04:36 | 40.29101 | -73.47778 | 11693 ft | 293 kts | 7° |
| 2026-05-09 04:36 | 40.31068 | -73.47068 | 11138 ft | 289 kts | 9° |
| 2026-05-09 04:37 | 40.32801 | -73.46063 | 11607 ft | 284 kts | 23° |
| 2026-05-09 04:37 | 40.33990 | -73.45148 | 11169 ft | 314 kts | 23° |
| 2026-05-09 04:37 | 40.36024 | -73.43685 | 10442 ft | 350 kts | 22° |
| 2026-05-09 04:37 | 40.38223 | -73.42183 | 9917 ft | 389 kts | 22° |
| 2026-05-09 04:38 | 40.40709 | -73.40423 | 9057 ft | 421 kts | 25° |
| 2026-05-09 04:38 | 40.43050 | -73.38878 | 8682 ft | 328 kts | 13° |
| 2026-05-09 04:38 | 40.45279 | -73.37864 | 8206 ft | 348 kts | 19° |
| 2026-05-09 04:38 | 40.47514 | -73.36673 | 7365 ft | 353 kts | 14° |
| 2026-05-09 04:39 | 40.49807 | -73.35590 | 7042 ft | 323 kts | 18° |
| 2026-05-09 04:39 | 40.51715 | -73.34417 | 6801 ft | 298 kts | 20° |
| 2026-05-09 04:39 | 40.53563 | -73.33633 | 5937 ft | 244 kts | 14° |
| 2026-05-09 04:40 | 40.55956 | -73.28766 | 4548 ft | 276 kts | 33° |
| 2026-05-09 04:40 | 40.57716 | -73.27930 | 3581 ft | 276 kts | 11° |
| 2026-05-09 04:40 | 40.59598 | -73.27420 | 3021 ft | 271 kts | 8° |
| 2026-05-09 04:40 | 40.61373 | -73.26954 | 2881 ft | 250 kts | 8° |
| 2026-05-09 04:41 | 40.63004 | -73.26532 | 2896 ft | 229 kts | 9° |
| 2026-05-09 04:41 | 40.64585 | -73.26099 | 2802 ft | 235 kts | 9° |
| 2026-05-09 04:41 | 40.66172 | -73.25654 | 2672 ft | 230 kts | 10° |
| 2026-05-09 04:41 | 40.67729 | -73.25198 | 2420 ft | 230 kts | 14° |
| 2026-05-09 04:42 | 40.69170 | -73.24364 | 2159 ft | 222 kts | 37° |
| 2026-05-09 04:42 | 40.70139 | -73.22940 | 2243 ft | 196 kts | 56° |
| 2026-05-09 04:42 | 40.71012 | -73.21547 | 2052 ft | 198 kts | 48° |
| 2026-05-09 04:42 | 40.71967 | -73.20322 | 2041 ft | 184 kts | 45° |
| 2026-05-09 04:43 | 40.72876 | -73.19206 | 2005 ft | 177 kts | 45° |
| 2026-05-09 04:43 | 40.73769 | -73.18030 | 1641 ft | 179 kts | 46° |
| 2026-05-09 04:43 | 40.74567 | -73.16960 | 1420 ft | 148 kts | 47° |
| 2026-05-09 04:43 | 40.75262 | -73.16013 | 1078 ft | 138 kts | 44° |
| 2026-05-09 04:44 | 40.75919 | -73.15137 | 929 ft | 134 kts | 46° |
| 2026-05-09 04:44 | 40.76539 | -73.14301 | 845 ft | 130 kts | 45° |
| 2026-05-09 04:44 | 40.77183 | -73.13483 | 600 ft | 127 kts | 45° |
| 2026-05-09 04:44 | 40.77802 | -73.12642 | 430 ft | 124 kts | 45° |
| 2026-05-09 04:45 | 40.78197 | -73.12116 | 327 ft | 118 kts | 45° |
| 2026-05-09 04:45 | 40.79021 | -73.11039 | 106 ft | 124 kts | 45° |
| 2026-05-09 04:45 | 40.79401 | -73.10533 | 99 ft | 106 kts | 45° |
| 2026-05-09 04:45 | 40.79801 | -73.10016 | 97 ft | 55 kts | 43° |
| 2026-05-09 04:46 | 40.80044 | -73.09694 | 96 ft | 47 kts | 41° |
| 2026-05-09 04:46 | 40.80231 | -73.09480 | 96 ft | 23 kts | 343° |